createdAt,value
2019-01-08T00:01:24.065Z,0.30
2019-01-08T00:03:52.877Z,0.40
2019-01-08T00:06:21.715Z,0.30
2019-01-08T00:08:51.032Z,0.40
2019-01-08T00:11:20.027Z,0.30
2019-01-08T00:13:49.067Z,0.30
2019-01-08T00:16:17.898Z,0.40
2019-01-08T00:18:47.888Z,0.30
2019-01-08T00:21:16.911Z,0.30
2019-01-08T00:23:45.975Z,0.40
2019-01-08T00:26:14.959Z,2.58
2019-01-08T00:28:44.001Z,0.30
2019-01-08T00:31:12.913Z,0.40
2019-01-08T00:33:42.272Z,0.40
2019-01-08T00:36:11.334Z,0.40
2019-01-08T00:38:40.322Z,0.40
2019-01-08T00:41:09.370Z,0.35
2019-01-08T00:43:38.628Z,0.40
2019-01-08T00:46:07.562Z,0.40
2019-01-08T00:48:36.974Z,0.30
2019-01-08T00:51:06.101Z,0.40
2019-01-08T00:53:35.116Z,0.40
2019-01-08T00:56:04.438Z,0.37
2019-01-08T00:58:33.543Z,0.30
2019-01-08T01:01:02.908Z,0.40
2019-01-08T01:03:31.845Z,0.30
2019-01-08T01:06:01.227Z,1.85
2019-01-08T01:08:30.359Z,0.40
2019-01-08T01:10:59.701Z,0.40
2019-01-08T01:13:28.895Z,1.80
2019-01-08T01:15:58.977Z,0.40
2019-01-08T01:18:27.999Z,0.40
2019-01-08T01:20:57.012Z,0.40
2019-01-08T01:23:26.309Z,0.40
2019-01-08T01:25:55.323Z,0.30
2019-01-08T01:28:24.826Z,0.30
2019-01-08T01:30:53.843Z,0.30
2019-01-08T01:33:22.914Z,0.30
2019-01-08T01:35:52.057Z,0.40
2019-01-08T01:38:21.241Z,0.40
2019-01-08T01:40:50.241Z,0.35
2019-01-08T01:43:19.319Z,0.30
2019-01-08T01:45:48.331Z,0.40
2019-01-08T01:48:17.799Z,0.30
2019-01-08T01:50:46.919Z,0.30
2019-01-08T01:53:15.819Z,0.30
2019-01-08T01:55:44.871Z,0.30
2019-01-08T01:58:13.788Z,0.30
2019-01-08T02:00:42.904Z,0.40
2019-01-08T02:03:11.893Z,0.30
2019-01-08T02:05:40.704Z,0.40
2019-01-08T02:08:09.463Z,0.30
2019-01-08T02:10:38.213Z,2.00
2019-01-08T02:13:07.209Z,0.30
2019-01-08T02:15:36.216Z,0.30
2019-01-08T02:18:05.071Z,0.30
2019-01-08T02:20:33.918Z,0.37
2019-01-08T02:23:02.949Z,0.30
2019-01-08T02:25:32.379Z,0.30
2019-01-08T02:28:01.539Z,0.40
2019-01-08T02:30:30.622Z,0.40
2019-01-08T02:32:59.876Z,0.30
2019-01-08T02:35:28.889Z,0.30
2019-01-08T02:37:57.652Z,0.40
2019-01-08T02:40:26.651Z,0.50
2019-01-08T02:42:55.736Z,0.30
2019-01-08T02:45:24.790Z,0.30
2019-01-08T02:47:53.826Z,0.40
2019-01-08T02:50:22.729Z,0.30
2019-01-08T02:52:52.381Z,0.30
2019-01-08T02:55:21.523Z,0.40
2019-01-08T02:57:50.405Z,0.40
2019-01-08T03:00:19.175Z,4.20
2019-01-08T03:02:48.111Z,20.37
2019-01-08T03:05:16.939Z,1.65
2019-01-08T03:07:46.278Z,0.40
2019-01-08T03:10:15.216Z,0.30
2019-01-08T03:12:44.120Z,0.30
2019-01-08T03:15:13.035Z,0.40
2019-01-08T03:17:42.047Z,0.40
2019-01-08T03:20:11.209Z,0.40
2019-01-08T03:22:40.172Z,0.40
2019-01-08T03:25:09.120Z,0.40
2019-01-08T03:27:38.300Z,0.40
2019-01-08T03:30:07.506Z,0.40
2019-01-08T03:32:36.555Z,0.40
2019-01-08T03:35:05.686Z,0.40
2019-01-08T03:37:34.632Z,0.40
2019-01-08T03:40:03.453Z,0.60
2019-01-08T03:42:33.237Z,0.30
2019-01-08T03:45:02.288Z,0.40
2019-01-08T03:47:31.061Z,0.40
2019-01-08T03:50:00.186Z,0.40
2019-01-08T03:52:29.146Z,0.30
2019-01-08T03:54:58.029Z,0.30
2019-01-08T03:57:26.970Z,0.40
2019-01-08T03:59:56.146Z,0.33
2019-01-08T04:02:25.025Z,0.40
2019-01-08T04:04:54.161Z,0.40
2019-01-08T04:07:22.987Z,0.30
2019-01-08T04:09:52.218Z,0.40
2019-01-08T04:12:21.152Z,0.40
2019-01-08T04:14:50.482Z,0.37
2019-01-08T04:17:19.291Z,0.40
2019-01-08T04:19:48.158Z,0.30
2019-01-08T04:22:17.218Z,0.35
2019-01-08T04:24:46.250Z,0.30
2019-01-08T04:27:15.139Z,0.30
2019-01-08T04:29:50.468Z,0.30
2019-01-08T04:32:15.288Z,0.30
2019-01-08T04:34:44.430Z,0.40
2019-01-08T04:37:13.201Z,0.30
2019-01-08T04:39:42.249Z,0.30
2019-01-08T04:42:11.020Z,0.40
2019-01-08T04:44:40.000Z,0.35
2019-01-08T04:47:09.078Z,0.37
2019-01-08T04:49:38.354Z,0.40
2019-01-08T04:52:07.418Z,1.02
2019-01-08T04:54:36.197Z,0.40
2019-01-08T04:57:05.153Z,0.30
2019-01-08T04:59:34.043Z,0.40
2019-01-08T05:02:02.856Z,0.30
2019-01-08T05:04:31.841Z,0.40
2019-01-08T05:07:00.858Z,0.40
2019-01-08T05:09:29.833Z,0.50
2019-01-08T05:11:58.731Z,0.40
2019-01-08T05:14:27.747Z,0.40
2019-01-08T05:16:56.990Z,0.30
2019-01-08T05:19:26.184Z,0.40
2019-01-08T05:21:55.277Z,0.30
2019-01-08T05:24:24.290Z,0.30
2019-01-08T05:26:53.315Z,0.40
2019-01-08T05:29:22.588Z,0.30
2019-01-08T05:31:51.570Z,0.40
2019-01-08T05:34:20.590Z,0.30
2019-01-08T05:36:49.872Z,0.40
2019-01-08T05:39:18.837Z,0.30
2019-01-08T05:41:47.965Z,0.30
2019-01-08T05:44:17.223Z,0.40
2019-01-08T05:46:46.009Z,0.42
2019-01-08T05:49:14.914Z,0.30
2019-01-08T05:51:43.775Z,0.40
2019-01-08T05:54:13.041Z,0.40
2019-01-08T05:56:42.007Z,0.40
2019-01-08T05:59:11.208Z,0.40
2019-01-08T06:01:40.072Z,0.40
2019-01-08T06:04:09.208Z,0.30
2019-01-08T06:06:38.210Z,0.40
2019-01-08T06:09:07.605Z,0.30
2019-01-08T06:11:36.601Z,2.35
2019-01-08T06:14:05.445Z,0.40
2019-01-08T06:16:34.584Z,0.40
2019-01-08T06:19:03.358Z,0.40
2019-01-08T06:21:32.472Z,1.15
2019-01-08T06:24:01.531Z,0.40
2019-01-08T06:26:30.561Z,0.40
2019-01-08T06:28:59.591Z,0.30
2019-01-08T06:31:28.547Z,0.30
2019-01-08T06:33:57.642Z,0.40
2019-01-08T06:36:26.422Z,0.30
2019-01-08T06:38:55.566Z,0.40
2019-01-08T06:41:24.513Z,0.40
2019-01-08T06:43:53.491Z,0.40
2019-01-08T06:46:22.283Z,0.30
2019-01-08T06:48:51.315Z,0.40
2019-01-08T06:51:20.419Z,0.40
2019-01-08T06:53:49.622Z,0.30
2019-01-08T06:56:18.738Z,0.40
2019-01-08T06:58:48.032Z,0.40
2019-01-08T07:01:17.130Z,0.40
2019-01-08T07:03:46.592Z,0.40
2019-01-08T07:06:15.525Z,0.40
2019-01-08T07:08:44.272Z,0.40
2019-01-08T07:11:13.354Z,0.40
2019-01-08T07:13:42.664Z,0.40
2019-01-08T07:16:11.832Z,0.37
2019-01-08T07:18:40.685Z,0.40
2019-01-08T07:21:09.424Z,0.40
2019-01-08T07:23:38.230Z,0.33
2019-01-08T07:26:07.046Z,0.40
2019-01-08T07:28:36.124Z,0.40
2019-01-08T07:31:05.275Z,0.35
2019-01-08T07:33:34.544Z,0.30
2019-01-08T07:36:03.458Z,0.30
2019-01-08T07:38:32.452Z,0.30
2019-01-08T07:41:01.693Z,0.30
2019-01-08T07:43:30.738Z,0.30
2019-01-08T07:45:59.515Z,0.40
2019-01-08T07:48:28.523Z,0.40
2019-01-08T07:50:57.507Z,0.40
2019-01-08T07:53:26.802Z,0.45
2019-01-08T07:55:55.548Z,0.40
2019-01-08T07:58:24.317Z,0.40
2019-01-08T08:00:53.446Z,0.40
2019-01-08T08:03:22.201Z,0.40
2019-01-08T08:05:51.330Z,0.90
2019-01-08T08:08:20.571Z,0.40
2019-01-08T08:10:49.553Z,0.37
2019-01-08T08:13:18.488Z,0.30
2019-01-08T08:15:47.627Z,0.30
2019-01-08T08:18:16.686Z,0.40
2019-01-08T08:20:45.652Z,0.40
2019-01-08T08:23:14.396Z,0.30
2019-01-08T08:25:43.234Z,0.40
2019-01-08T08:28:12.199Z,0.40
2019-01-08T08:30:41.215Z,0.45
2019-01-08T08:33:10.002Z,0.40
2019-01-08T08:35:38.825Z,0.35
2019-01-08T08:38:07.856Z,0.35
2019-01-08T08:40:36.876Z,0.40
2019-01-08T08:43:05.899Z,0.35
2019-01-08T08:45:35.106Z,0.40
2019-01-08T08:48:04.863Z,0.30
2019-01-08T08:50:35.274Z,0.40
2019-01-08T08:53:04.280Z,0.40
2019-01-08T08:55:33.162Z,0.40
2019-01-08T08:58:02.142Z,0.40
2019-01-08T09:00:31.014Z,0.40
2019-01-08T09:03:00.056Z,0.40
2019-01-08T09:05:28.950Z,0.40
2019-01-08T09:07:58.066Z,0.50
2019-01-08T09:10:27.278Z,0.30
2019-01-08T09:12:57.490Z,0.40
2019-01-08T09:15:26.631Z,0.30
2019-01-08T09:17:55.751Z,0.40
2019-01-08T09:20:24.915Z,0.40
2019-01-08T09:22:53.875Z,0.35
2019-01-08T09:25:22.870Z,0.40
2019-01-08T09:27:51.695Z,0.40
2019-01-08T09:30:20.718Z,3.92
2019-01-08T09:32:49.919Z,3.30
2019-01-08T09:35:18.912Z,4.00
2019-01-08T09:37:48.014Z,4.40
2019-01-08T09:40:16.855Z,3.90
2019-01-08T09:42:45.964Z,3.25
2019-01-08T09:45:14.988Z,3.00
2019-01-08T09:47:43.787Z,4.10
2019-01-08T09:50:12.714Z,2.60
2019-01-08T09:52:41.631Z,3.60
2019-01-08T09:55:10.508Z,3.90
2019-01-08T09:57:39.526Z,3.52
2019-01-08T10:00:09.422Z,3.95
2019-01-08T10:02:38.764Z,3.12
2019-01-08T10:05:07.640Z,3.92
2019-01-08T10:07:36.700Z,3.85
2019-01-08T10:10:06.124Z,3.05
2019-01-08T10:12:35.319Z,4.70
2019-01-08T10:15:04.283Z,4.30
2019-01-08T10:17:33.237Z,3.75
2019-01-08T10:20:02.546Z,3.62
2019-01-08T10:22:31.711Z,3.50
2019-01-08T10:25:00.704Z,3.50
2019-01-08T10:27:29.457Z,4.40
2019-01-08T10:29:58.370Z,4.80
2019-01-08T10:32:27.241Z,4.90
2019-01-08T10:34:56.279Z,4.47
2019-01-08T10:37:25.258Z,4.17
2019-01-08T10:39:54.680Z,4.62
2019-01-08T10:42:23.673Z,3.25
2019-01-08T10:44:52.648Z,3.35
2019-01-08T10:47:22.002Z,3.77
2019-01-08T10:49:51.064Z,4.55
2019-01-08T10:52:19.961Z,3.15
2019-01-08T10:54:49.219Z,2.60
2019-01-08T10:57:18.589Z,2.60
2019-01-08T10:59:47.679Z,3.87
2019-01-08T11:02:16.702Z,4.15
2019-01-08T11:04:45.758Z,3.17
2019-01-08T11:07:14.927Z,3.00
2019-01-08T11:09:43.810Z,2.62
2019-01-08T11:12:12.782Z,3.58
2019-01-08T11:14:41.671Z,2.83
2019-01-08T11:17:10.415Z,4.33
2019-01-08T11:19:39.552Z,2.62
2019-01-08T11:22:08.365Z,3.12
2019-01-08T11:24:37.203Z,2.50
2019-01-08T11:27:06.116Z,3.58
2019-01-08T11:29:34.893Z,2.50
2019-01-08T11:32:03.750Z,4.17
2019-01-08T11:34:32.647Z,3.30
2019-01-08T11:37:01.635Z,2.25
2019-01-08T11:39:30.487Z,2.30
2019-01-08T11:41:59.330Z,11.08
2019-01-08T11:44:28.305Z,2.25
2019-01-08T11:46:57.251Z,3.40
2019-01-08T11:49:26.065Z,2.80
2019-01-08T11:51:54.822Z,2.98
2019-01-08T11:54:23.693Z,2.62
2019-01-08T11:56:52.475Z,2.17
2019-01-08T11:59:21.483Z,2.25
2019-01-08T12:01:57.145Z,2.35
2019-01-08T12:04:20.956Z,2.42
2019-01-08T12:06:49.712Z,3.05
2019-01-08T12:09:18.760Z,1.92
2019-01-08T12:11:48.105Z,3.45
2019-01-08T12:14:17.136Z,2.72
2019-01-08T12:16:46.255Z,3.17
2019-01-08T12:19:15.437Z,2.87
2019-01-08T12:21:44.427Z,2.58
2019-01-08T12:24:13.510Z,2.72
2019-01-08T12:26:42.611Z,2.15
2019-01-08T12:29:11.575Z,2.35
2019-01-08T12:31:40.494Z,0.47
2019-01-08T12:34:09.237Z,0.35
2019-01-08T12:36:38.042Z,0.30
2019-01-08T12:39:07.927Z,0.40
2019-01-08T12:41:37.043Z,0.50
2019-01-08T12:44:06.172Z,0.40
2019-01-08T12:46:35.296Z,0.40
2019-01-08T12:49:04.261Z,0.40
2019-01-08T12:51:33.134Z,0.40
2019-01-08T12:54:02.181Z,0.40
2019-01-08T12:56:31.225Z,0.40
2019-01-08T12:58:59.948Z,0.40
2019-01-08T13:01:28.703Z,0.40
2019-01-08T13:03:57.651Z,0.40
2019-01-08T13:06:26.375Z,0.40
2019-01-08T13:08:55.337Z,0.40
2019-01-08T13:11:24.573Z,0.40
2019-01-08T13:13:53.613Z,0.40
2019-01-08T13:16:22.411Z,0.50
2019-01-08T13:18:51.276Z,0.47
2019-01-08T13:21:20.316Z,0.40
2019-01-08T13:23:49.331Z,0.50
2019-01-08T13:26:18.679Z,0.40
2019-01-08T13:28:47.440Z,0.40
2019-01-08T13:31:16.248Z,0.50
2019-01-08T13:33:45.279Z,0.50
2019-01-08T13:36:14.172Z,0.40
2019-01-08T13:38:43.278Z,0.30
2019-01-08T13:41:12.069Z,0.50
2019-01-08T13:43:40.788Z,0.40
2019-01-08T13:46:10.111Z,0.40
2019-01-08T13:48:39.072Z,0.40
2019-01-08T13:51:08.382Z,0.37
2019-01-08T13:53:37.451Z,0.40
2019-01-08T13:56:06.510Z,0.40
2019-01-08T13:58:35.607Z,0.40
2019-01-08T14:01:04.538Z,0.40
2019-01-08T14:03:33.439Z,0.30
2019-01-08T14:06:02.369Z,0.40
2019-01-08T14:08:31.408Z,0.40
2019-01-08T14:11:00.686Z,0.40
2019-01-08T14:13:29.618Z,0.40
2019-01-08T14:15:58.593Z,0.40
2019-01-08T14:18:27.325Z,0.47
2019-01-08T14:20:56.501Z,0.40
2019-01-08T14:23:25.530Z,0.40
2019-01-08T14:25:54.303Z,0.40
2019-01-08T14:28:23.329Z,0.40
2019-01-08T14:30:52.441Z,0.40
2019-01-08T14:33:21.505Z,0.40
2019-01-08T14:35:50.590Z,0.50
2019-01-08T14:38:19.844Z,0.40
2019-01-08T14:40:49.196Z,0.40
2019-01-08T14:43:18.146Z,0.50
2019-01-08T14:45:47.026Z,0.50
2019-01-08T14:48:16.064Z,0.40
2019-01-08T14:50:45.223Z,0.40
2019-01-08T14:53:14.023Z,0.42
2019-01-08T14:55:43.203Z,0.40
2019-01-08T14:58:12.007Z,0.40
2019-01-08T15:00:41.021Z,0.40
2019-01-08T15:03:09.793Z,0.40
2019-01-08T15:05:38.653Z,0.40
2019-01-08T15:08:07.768Z,0.55
2019-01-08T15:10:36.576Z,0.42
2019-01-08T15:13:05.650Z,0.40
2019-01-08T15:15:34.502Z,0.40
2019-01-08T15:18:03.560Z,2.05
2019-01-08T15:20:32.375Z,0.47
2019-01-08T15:23:01.455Z,0.50
2019-01-08T15:25:30.458Z,0.40
2019-01-08T15:27:59.917Z,0.40
2019-01-08T15:30:28.851Z,0.40
2019-01-08T15:32:58.382Z,0.50
2019-01-08T15:35:27.529Z,0.50
2019-01-08T15:37:56.490Z,0.50
2019-01-08T15:40:25.253Z,0.37
2019-01-08T15:42:54.341Z,0.40
2019-01-08T15:45:23.588Z,0.40
2019-01-08T15:47:52.574Z,0.40
2019-01-08T15:50:21.955Z,0.30
2019-01-08T15:52:51.364Z,0.40
2019-01-08T15:55:20.173Z,0.40
2019-01-08T15:57:49.232Z,0.50
2019-01-08T16:00:18.295Z,0.40
2019-01-08T16:02:47.168Z,0.30
2019-01-08T16:05:16.166Z,0.40
2019-01-08T16:07:44.995Z,0.30
2019-01-08T16:10:14.273Z,0.40
2019-01-08T16:12:43.375Z,0.40
2019-01-08T16:15:12.595Z,0.55
2019-01-08T16:17:41.915Z,0.40
2019-01-08T16:20:10.701Z,0.40
2019-01-08T16:22:39.696Z,0.40
2019-01-08T16:25:08.963Z,0.40
2019-01-08T16:27:38.120Z,0.40
2019-01-08T16:30:07.176Z,0.40
2019-01-08T16:32:36.281Z,0.30
2019-01-08T16:35:05.572Z,0.40
2019-01-08T16:37:34.721Z,0.30
2019-01-08T16:40:04.054Z,0.40
2019-01-08T16:42:33.294Z,0.37
2019-01-08T16:45:02.267Z,0.40
2019-01-08T16:47:31.220Z,0.40
2019-01-08T16:50:00.369Z,0.40
2019-01-08T16:52:29.223Z,0.40
2019-01-08T16:54:58.140Z,0.40
2019-01-08T16:57:27.184Z,0.40
2019-01-08T16:59:56.358Z,0.40
2019-01-08T17:02:25.254Z,0.40
2019-01-08T17:04:54.539Z,0.30
2019-01-08T17:07:23.861Z,0.47
2019-01-08T17:09:52.818Z,0.40
2019-01-08T17:12:21.905Z,0.40
2019-01-08T17:14:50.654Z,0.40
2019-01-08T17:17:19.662Z,0.40
2019-01-08T17:19:48.608Z,0.40
2019-01-08T17:22:17.407Z,0.40
2019-01-08T17:24:46.449Z,0.40
2019-01-08T17:27:15.792Z,0.37
2019-01-08T17:29:44.843Z,0.40
2019-01-08T17:32:13.961Z,0.40
2019-01-08T17:34:43.026Z,0.40
2019-01-08T17:37:11.907Z,0.33
2019-01-08T17:39:43.862Z,0.40
2019-01-08T17:42:12.890Z,0.40
2019-01-08T17:44:41.950Z,0.40
2019-01-08T17:47:10.728Z,0.40
2019-01-08T17:49:39.998Z,0.40
2019-01-08T17:52:08.915Z,0.40
2019-01-08T17:54:37.797Z,0.30
2019-01-08T17:57:06.807Z,0.40
2019-01-08T17:59:35.835Z,0.50
2019-01-08T18:02:11.786Z,0.45
2019-01-08T18:04:40.608Z,0.40
2019-01-08T18:07:09.631Z,0.40
2019-01-08T18:09:38.411Z,0.40
2019-01-08T18:12:07.256Z,0.33
2019-01-08T18:14:36.490Z,0.30
2019-01-08T18:17:06.070Z,0.40
2019-01-08T18:19:35.133Z,0.40
2019-01-08T18:22:04.222Z,0.30
2019-01-08T18:24:33.203Z,0.40
2019-01-08T18:27:02.316Z,1.10
2019-01-08T18:29:31.468Z,0.40
2019-01-08T18:32:00.464Z,1.45
2019-01-08T18:34:29.338Z,0.30
2019-01-08T18:36:58.406Z,0.40
2019-01-08T18:39:27.526Z,0.40
2019-01-08T18:41:56.462Z,0.40
2019-01-08T18:44:25.500Z,0.40
2019-01-08T18:46:54.548Z,0.40
2019-01-08T18:49:23.357Z,0.40
2019-01-08T18:51:52.337Z,0.30
2019-01-08T18:54:21.097Z,0.40
2019-01-08T18:56:49.960Z,0.50
2019-01-08T18:59:22.221Z,0.40
2019-01-08T19:01:51.617Z,0.40
2019-01-08T19:04:20.613Z,0.40
2019-01-08T19:06:49.954Z,0.40
2019-01-08T19:09:33.652Z,0.40
2019-01-08T19:12:03.283Z,0.40
2019-01-08T19:14:35.313Z,0.40
2019-01-08T19:17:04.207Z,0.40
2019-01-08T19:19:33.100Z,0.53
2019-01-08T19:22:02.149Z,0.40
2019-01-08T19:24:31.427Z,0.50
2019-01-08T19:27:02.166Z,0.40
2019-01-08T19:29:31.195Z,0.60
2019-01-08T19:32:00.296Z,0.40
2019-01-08T19:34:29.175Z,0.40
2019-01-08T19:36:58.115Z,2.80
2019-01-08T19:39:27.247Z,3.10
2019-01-08T19:41:56.109Z,3.35
2019-01-08T19:44:25.122Z,3.35
2019-01-08T19:46:54.143Z,2.37
2019-01-08T19:49:23.114Z,2.67
2019-01-08T19:51:51.992Z,3.83
2019-01-08T19:54:28.099Z,1.25
2019-01-08T19:56:57.649Z,2.80
2019-01-08T19:59:26.590Z,3.80
2019-01-08T20:01:55.548Z,3.77
2019-01-08T20:04:24.676Z,3.02
2019-01-08T20:06:53.777Z,2.37
2019-01-08T20:09:25.479Z,4.17
2019-01-08T20:11:53.504Z,2.33
2019-01-08T20:14:23.665Z,2.02
2019-01-08T20:16:53.095Z,2.58
2019-01-08T20:19:22.020Z,3.12
2019-01-08T20:21:50.952Z,3.35
2019-01-08T20:24:20.367Z,3.72
2019-01-08T20:26:49.504Z,3.50
2019-01-08T20:29:18.820Z,3.95
2019-01-08T20:31:47.677Z,3.00
2019-01-08T20:34:17.125Z,2.95
2019-01-08T20:36:46.171Z,2.80
2019-01-08T20:39:15.366Z,2.12
2019-01-08T20:41:44.339Z,2.65
2019-01-08T20:44:13.401Z,2.20
2019-01-08T20:46:42.653Z,3.05
2019-01-08T20:49:12.794Z,2.98
2019-01-08T20:51:41.519Z,2.35
2019-01-08T20:54:10.943Z,3.00
2019-01-08T20:56:41.749Z,3.35
2019-01-08T20:59:10.502Z,2.60
2019-01-08T21:01:39.751Z,3.10
2019-01-08T21:04:08.554Z,3.25
2019-01-08T21:06:37.703Z,2.90
2019-01-08T21:09:07.770Z,3.20
2019-01-08T21:11:36.588Z,2.27
2019-01-08T21:14:08.648Z,2.30
2019-01-08T21:16:37.775Z,2.25
2019-01-08T21:19:09.881Z,2.98
2019-01-08T21:21:39.258Z,3.30
2019-01-08T21:24:08.387Z,2.10
2019-01-08T21:26:37.577Z,3.30
2019-01-08T21:29:06.658Z,3.25
2019-01-08T21:31:35.715Z,2.58
2019-01-08T21:34:04.695Z,3.05
2019-01-08T21:36:33.602Z,2.80
2019-01-08T21:39:03.875Z,3.62
2019-01-08T21:41:32.899Z,1.80
2019-01-08T21:44:01.714Z,2.20
2019-01-08T21:46:30.506Z,3.10
2019-01-08T21:49:00.049Z,3.27
2019-01-08T21:51:29.069Z,2.25
2019-01-08T21:53:58.253Z,3.27
2019-01-08T21:56:27.378Z,2.52
2019-01-08T21:58:56.272Z,2.90
2019-01-08T22:01:25.702Z,3.17
2019-01-08T22:03:54.647Z,2.22
2019-01-08T22:06:23.684Z,2.72
2019-01-08T22:08:52.447Z,2.25
2019-01-08T22:11:21.407Z,2.40
2019-01-08T22:13:50.467Z,2.20
2019-01-08T22:16:19.562Z,2.72
2019-01-08T22:18:49.039Z,3.65
2019-01-08T22:21:17.983Z,2.02
2019-01-08T22:23:47.023Z,2.15
2019-01-08T22:26:16.500Z,2.58
2019-01-08T22:28:47.679Z,1.95
2019-01-08T22:31:16.559Z,2.25
2019-01-08T22:33:45.357Z,1.65
2019-01-08T22:36:16.667Z,2.20
2019-01-08T22:38:45.660Z,2.72
2019-01-08T22:41:14.520Z,3.15
2019-01-08T22:43:43.623Z,2.47
2019-01-08T22:46:12.895Z,2.72
2019-01-08T22:48:41.662Z,2.20
2019-01-08T22:51:10.731Z,2.25
2019-01-08T22:53:39.991Z,2.92
2019-01-08T22:56:09.089Z,2.80
2019-01-08T22:58:38.246Z,3.72
2019-01-08T23:01:12.722Z,3.00
2019-01-08T23:03:41.644Z,2.70
2019-01-08T23:06:10.470Z,2.80
2019-01-08T23:08:39.778Z,3.08
2019-01-08T23:11:08.825Z,3.33
2019-01-08T23:13:37.822Z,2.35
2019-01-08T23:16:06.811Z,3.05
2019-01-08T23:18:35.580Z,2.30
2019-01-08T23:21:04.386Z,2.42
2019-01-08T23:23:33.382Z,2.10
2019-01-08T23:26:02.453Z,2.65
2019-01-08T23:28:31.536Z,2.77
2019-01-08T23:31:00.931Z,2.02
2019-01-08T23:33:29.923Z,1.90
2019-01-08T23:35:59.105Z,2.85
2019-01-08T23:38:27.949Z,2.58
2019-01-08T23:40:56.991Z,2.50
2019-01-08T23:43:26.190Z,2.98
2019-01-08T23:45:55.218Z,2.58
2019-01-08T23:48:24.248Z,2.85
2019-01-08T23:50:53.423Z,2.90
2019-01-08T23:53:38.204Z,2.72
2019-01-08T23:56:08.148Z,3.42
2019-01-08T23:58:37.183Z,2.50
